sensor_id;sensor_type;location;lat;lon;timestamp;P1;durP1;ratioP1;P2;durP2;ratioP2
58928;SDS011;44713;53.378;10.022;2022-12-07T00:01:35;38.92;;;18.77;;
58928;SDS011;44713;53.378;10.022;2022-12-07T00:04:03;39.42;;;18.42;;
58928;SDS011;44713;53.378;10.022;2022-12-07T00:06:30;34.40;;;17.55;;
58928;SDS011;44713;53.378;10.022;2022-12-07T00:08:57;31.65;;;17.10;;
58928;SDS011;44713;53.378;10.022;2022-12-07T00:11:22;33.72;;;18.05;;
58928;SDS011;44713;53.378;10.022;2022-12-07T00:13:58;33.38;;;17.60;;
58928;SDS011;44713;53.378;10.022;2022-12-07T00:16:27;34.22;;;16.35;;
58928;SDS011;44713;53.378;10.022;2022-12-07T00:18:54;34.75;;;18.48;;
58928;SDS011;44713;53.378;10.022;2022-12-07T00:21:21;31.08;;;16.67;;
58928;SDS011;44713;53.378;10.022;2022-12-07T00:23:48;35.63;;;18.40;;
58928;SDS011;44713;53.378;10.022;2022-12-07T00:26:16;32.85;;;17.13;;
58928;SDS011;44713;53.378;10.022;2022-12-07T00:28:47;32.15;;;16.13;;
58928;SDS011;44713;53.378;10.022;2022-12-07T00:31:13;30.33;;;15.10;;
58928;SDS011;44713;53.378;10.022;2022-12-07T00:33:40;27.67;;;15.80;;
58928;SDS011;44713;53.378;10.022;2022-12-07T00:36:07;28.75;;;14.57;;
58928;SDS011;44713;53.378;10.022;2022-12-07T00:38:35;27.08;;;14.77;;
58928;SDS011;44713;53.378;10.022;2022-12-07T00:41:03;30.27;;;15.02;;
58928;SDS011;44713;53.378;10.022;2022-12-07T00:43:34;25.98;;;14.73;;
58928;SDS011;44713;53.378;10.022;2022-12-07T00:45:59;27.48;;;15.00;;
58928;SDS011;44713;53.378;10.022;2022-12-07T00:48:25;26.58;;;13.60;;
58928;SDS011;44713;53.378;10.022;2022-12-07T00:50:51;34.05;;;14.70;;
58928;SDS011;44713;53.378;10.022;2022-12-07T00:53:16;27.33;;;13.90;;
58928;SDS011;44713;53.378;10.022;2022-12-07T00:55:42;28.38;;;13.82;;
58928;SDS011;44713;53.378;10.022;2022-12-07T00:58:08;23.17;;;13.55;;
58928;SDS011;44713;53.378;10.022;2022-12-07T01:00:34;24.70;;;13.35;;
58928;SDS011;44713;53.378;10.022;2022-12-07T01:03:01;25.90;;;13.85;;
58928;SDS011;44713;53.378;10.022;2022-12-07T01:05:26;26.48;;;13.90;;
58928;SDS011;44713;53.378;10.022;2022-12-07T01:07:51;27.08;;;13.35;;
58928;SDS011;44713;53.378;10.022;2022-12-07T01:10:17;27.88;;;14.50;;
58928;SDS011;44713;53.378;10.022;2022-12-07T01:12:42;25.98;;;13.27;;
58928;SDS011;44713;53.378;10.022;2022-12-07T01:15:08;28.15;;;13.73;;
58928;SDS011;44713;53.378;10.022;2022-12-07T01:17:33;28.73;;;14.32;;
58928;SDS011;44713;53.378;10.022;2022-12-07T01:19:59;29.10;;;14.43;;
58928;SDS011;44713;53.378;10.022;2022-12-07T01:22:24;28.13;;;15.68;;
58928;SDS011;44713;53.378;10.022;2022-12-07T01:24:50;31.23;;;14.77;;
58928;SDS011;44713;53.378;10.022;2022-12-07T01:27:15;30.10;;;14.55;;
58928;SDS011;44713;53.378;10.022;2022-12-07T01:29:41;38.67;;;16.35;;
58928;SDS011;44713;53.378;10.022;2022-12-07T01:32:06;27.48;;;14.68;;
58928;SDS011;44713;53.378;10.022;2022-12-07T01:34:32;29.45;;;15.18;;
58928;SDS011;44713;53.378;10.022;2022-12-07T01:36:57;31.75;;;15.27;;
58928;SDS011;44713;53.378;10.022;2022-12-07T01:39:23;29.60;;;14.75;;
58928;SDS011;44713;53.378;10.022;2022-12-07T01:41:48;29.75;;;14.57;;
58928;SDS011;44713;53.378;10.022;2022-12-07T01:46:53;33.92;;;15.00;;
58928;SDS011;44713;53.378;10.022;2022-12-07T01:52:03;20.88;;;11.25;;
58928;SDS011;44713;53.378;10.022;2022-12-07T01:54:46;20.25;;;10.10;;
58928;SDS011;44713;53.378;10.022;2022-12-07T01:57:14;23.95;;;11.38;;
58928;SDS011;44713;53.378;10.022;2022-12-07T01:59:41;17.83;;;10.40;;
58928;SDS011;44713;53.378;10.022;2022-12-07T02:02:19;19.17;;;10.48;;
58928;SDS011;44713;53.378;10.022;2022-12-07T02:04:47;22.92;;;10.32;;
58928;SDS011;44713;53.378;10.022;2022-12-07T02:07:14;18.85;;;10.40;;
58928;SDS011;44713;53.378;10.022;2022-12-07T02:09:40;21.48;;;10.60;;
58928;SDS011;44713;53.378;10.022;2022-12-07T02:12:05;19.48;;;10.07;;
58928;SDS011;44713;53.378;10.022;2022-12-07T02:14:31;18.30;;;9.93;;
58928;SDS011;44713;53.378;10.022;2022-12-07T02:17:03;21.77;;;10.00;;
58928;SDS011;44713;53.378;10.022;2022-12-07T02:19:55;23.33;;;10.43;;
58928;SDS011;44713;53.378;10.022;2022-12-07T02:22:50;18.55;;;10.70;;
58928;SDS011;44713;53.378;10.022;2022-12-07T02:30:52;16.92;;;8.45;;
58928;SDS011;44713;53.378;10.022;2022-12-07T02:34:04;15.38;;;9.07;;
58928;SDS011;44713;53.378;10.022;2022-12-07T02:36:19;17.25;;;8.68;;
58928;SDS011;44713;53.378;10.022;2022-12-07T02:38:59;16.13;;;8.55;;
58928;SDS011;44713;53.378;10.022;2022-12-07T02:41:29;17.50;;;7.45;;
58928;SDS011;44713;53.378;10.022;2022-12-07T02:43:59;17.77;;;8.48;;
58928;SDS011;44713;53.378;10.022;2022-12-07T02:46:30;17.92;;;8.65;;
58928;SDS011;44713;53.378;10.022;2022-12-07T02:48:59;13.65;;;7.72;;
58928;SDS011;44713;53.378;10.022;2022-12-07T02:51:25;15.27;;;7.03;;
58928;SDS011;44713;53.378;10.022;2022-12-07T02:53:50;15.48;;;6.60;;
58928;SDS011;44713;53.378;10.022;2022-12-07T02:56:20;11.38;;;6.00;;
58928;SDS011;44713;53.378;10.022;2022-12-07T02:59:02;10.82;;;5.05;;
58928;SDS011;44713;53.378;10.022;2022-12-07T03:01:50;12.85;;;5.97;;
58928;SDS011;44713;53.378;10.022;2022-12-07T03:04:52;16.98;;;5.82;;
58928;SDS011;44713;53.378;10.022;2022-12-07T03:13:54;12.02;;;6.03;;
58928;SDS011;44713;53.378;10.022;2022-12-07T03:16:36;9.93;;;4.78;;
58928;SDS011;44713;53.378;10.022;2022-12-07T03:19:08;13.38;;;4.65;;
58928;SDS011;44713;53.378;10.022;2022-12-07T03:21:44;7.32;;;3.97;;
58928;SDS011;44713;53.378;10.022;2022-12-07T03:24:17;11.20;;;4.40;;
58928;SDS011;44713;53.378;10.022;2022-12-07T03:26:47;11.02;;;5.43;;
58928;SDS011;44713;53.378;10.022;2022-12-07T03:29:25;9.10;;;4.28;;
58928;SDS011;44713;53.378;10.022;2022-12-07T03:31:55;10.68;;;4.50;;
58928;SDS011;44713;53.378;10.022;2022-12-07T03:34:34;11.73;;;4.43;;
58928;SDS011;44713;53.378;10.022;2022-12-07T03:37:11;11.15;;;3.70;;
58928;SDS011;44713;53.378;10.022;2022-12-07T03:39:46;9.20;;;3.80;;
58928;SDS011;44713;53.378;10.022;2022-12-07T03:42:27;9.25;;;3.50;;
58928;SDS011;44713;53.378;10.022;2022-12-07T03:44:53;8.43;;;3.95;;
58928;SDS011;44713;53.378;10.022;2022-12-07T03:47:26;12.52;;;4.00;;
58928;SDS011;44713;53.378;10.022;2022-12-07T03:50:06;13.07;;;4.18;;
58928;SDS011;44713;53.378;10.022;2022-12-07T03:52:39;7.00;;;3.85;;
58928;SDS011;44713;53.378;10.022;2022-12-07T03:57:39;8.20;;;3.63;;
58928;SDS011;44713;53.378;10.022;2022-12-07T04:00:07;14.35;;;4.45;;
58928;SDS011;44713;53.378;10.022;2022-12-07T04:02:40;9.70;;;3.72;;
58928;SDS011;44713;53.378;10.022;2022-12-07T04:05:06;11.48;;;3.67;;
58928;SDS011;44713;53.378;10.022;2022-12-07T04:07:32;9.63;;;3.78;;
58928;SDS011;44713;53.378;10.022;2022-12-07T04:09:58;15.45;;;3.67;;
58928;SDS011;44713;53.378;10.022;2022-12-07T04:12:23;7.80;;;3.50;;
58928;SDS011;44713;53.378;10.022;2022-12-07T04:14:48;6.47;;;3.35;;
58928;SDS011;44713;53.378;10.022;2022-12-07T04:17:14;7.43;;;2.78;;
58928;SDS011;44713;53.378;10.022;2022-12-07T04:19:39;6.78;;;2.67;;
58928;SDS011;44713;53.378;10.022;2022-12-07T04:22:05;7.03;;;2.70;;
58928;SDS011;44713;53.378;10.022;2022-12-07T04:24:31;9.32;;;2.70;;
58928;SDS011;44713;53.378;10.022;2022-12-07T04:26:57;9.55;;;2.55;;
58928;SDS011;44713;53.378;10.022;2022-12-07T04:29:22;5.22;;;2.55;;
58928;SDS011;44713;53.378;10.022;2022-12-07T04:31:48;10.57;;;2.80;;
58928;SDS011;44713;53.378;10.022;2022-12-07T04:34:14;7.43;;;1.95;;
58928;SDS011;44713;53.378;10.022;2022-12-07T04:36:40;6.55;;;2.03;;
58928;SDS011;44713;53.378;10.022;2022-12-07T04:39:07;11.40;;;2.42;;
58928;SDS011;44713;53.378;10.022;2022-12-07T04:41:42;7.95;;;2.17;;
58928;SDS011;44713;53.378;10.022;2022-12-07T04:44:07;5.45;;;2.20;;
58928;SDS011;44713;53.378;10.022;2022-12-07T04:46:33;7.00;;;1.60;;
58928;SDS011;44713;53.378;10.022;2022-12-07T04:48:58;8.02;;;2.15;;
58928;SDS011;44713;53.378;10.022;2022-12-07T04:51:25;5.40;;;1.90;;
58928;SDS011;44713;53.378;10.022;2022-12-07T04:53:51;12.63;;;2.97;;
58928;SDS011;44713;53.378;10.022;2022-12-07T04:56:17;5.95;;;1.92;;
58928;SDS011;44713;53.378;10.022;2022-12-07T04:58:44;5.85;;;2.25;;
58928;SDS011;44713;53.378;10.022;2022-12-07T05:01:10;5.10;;;2.13;;
58928;SDS011;44713;53.378;10.022;2022-12-07T05:03:37;5.25;;;2.10;;
58928;SDS011;44713;53.378;10.022;2022-12-07T05:06:02;7.18;;;2.40;;
58928;SDS011;44713;53.378;10.022;2022-12-07T05:08:28;5.78;;;2.17;;
58928;SDS011;44713;53.378;10.022;2022-12-07T05:10:53;5.90;;;2.20;;
58928;SDS011;44713;53.378;10.022;2022-12-07T05:13:19;8.73;;;1.83;;
58928;SDS011;44713;53.378;10.022;2022-12-07T05:15:44;4.53;;;1.50;;
58928;SDS011;44713;53.378;10.022;2022-12-07T05:18:11;4.32;;;1.98;;
58928;SDS011;44713;53.378;10.022;2022-12-07T05:20:38;3.35;;;1.83;;
58928;SDS011;44713;53.378;10.022;2022-12-07T05:23:03;4.30;;;1.88;;
58928;SDS011;44713;53.378;10.022;2022-12-07T05:25:29;5.90;;;2.00;;
58928;SDS011;44713;53.378;10.022;2022-12-07T05:27:54;4.80;;;1.67;;
58928;SDS011;44713;53.378;10.022;2022-12-07T05:30:21;4.20;;;1.70;;
58928;SDS011;44713;53.378;10.022;2022-12-07T05:32:46;4.20;;;1.75;;
58928;SDS011;44713;53.378;10.022;2022-12-07T05:35:12;4.75;;;1.77;;
58928;SDS011;44713;53.378;10.022;2022-12-07T05:37:37;3.83;;;1.55;;
58928;SDS011;44713;53.378;10.022;2022-12-07T05:40:03;2.75;;;1.73;;
58928;SDS011;44713;53.378;10.022;2022-12-07T05:42:30;2.75;;;1.60;;
58928;SDS011;44713;53.378;10.022;2022-12-07T05:44:55;7.07;;;1.55;;
58928;SDS011;44713;53.378;10.022;2022-12-07T05:47:20;4.15;;;1.65;;
58928;SDS011;44713;53.378;10.022;2022-12-07T05:49:46;2.92;;;1.67;;
58928;SDS011;44713;53.378;10.022;2022-12-07T05:52:11;4.47;;;1.75;;
58928;SDS011;44713;53.378;10.022;2022-12-07T05:54:36;4.55;;;1.85;;
58928;SDS011;44713;53.378;10.022;2022-12-07T05:57:02;18.45;;;2.78;;
58928;SDS011;44713;53.378;10.022;2022-12-07T05:59:27;4.22;;;1.38;;
58928;SDS011;44713;53.378;10.022;2022-12-07T06:04:25;4.63;;;2.20;;
58928;SDS011;44713;53.378;10.022;2022-12-07T06:06:52;5.75;;;1.90;;
58928;SDS011;44713;53.378;10.022;2022-12-07T06:09:18;5.20;;;2.03;;
58928;SDS011;44713;53.378;10.022;2022-12-07T06:11:45;4.65;;;2.25;;
58928;SDS011;44713;53.378;10.022;2022-12-07T06:14:29;8.05;;;1.92;;
58928;SDS011;44713;53.378;10.022;2022-12-07T06:16:54;5.88;;;2.00;;
58928;SDS011;44713;53.378;10.022;2022-12-07T06:19:20;4.40;;;2.20;;
58928;SDS011;44713;53.378;10.022;2022-12-07T06:21:45;5.88;;;2.05;;
58928;SDS011;44713;53.378;10.022;2022-12-07T06:24:11;4.05;;;2.00;;
58928;SDS011;44713;53.378;10.022;2022-12-07T06:26:37;7.45;;;2.10;;
58928;SDS011;44713;53.378;10.022;2022-12-07T06:29:03;8.30;;;2.38;;
58928;SDS011;44713;53.378;10.022;2022-12-07T06:31:28;4.05;;;2.03;;
58928;SDS011;44713;53.378;10.022;2022-12-07T06:33:58;11.15;;;2.15;;
58928;SDS011;44713;53.378;10.022;2022-12-07T06:36:24;3.78;;;1.98;;
58928;SDS011;44713;53.378;10.022;2022-12-07T06:38:49;6.75;;;2.17;;
58928;SDS011;44713;53.378;10.022;2022-12-07T06:41:14;9.68;;;2.53;;
58928;SDS011;44713;53.378;10.022;2022-12-07T06:43:39;7.40;;;2.60;;
58928;SDS011;44713;53.378;10.022;2022-12-07T06:46:05;9.77;;;2.25;;
58928;SDS011;44713;53.378;10.022;2022-12-07T06:48:30;7.65;;;1.98;;
58928;SDS011;44713;53.378;10.022;2022-12-07T06:50:55;7.22;;;2.38;;
58928;SDS011;44713;53.378;10.022;2022-12-07T06:53:21;5.20;;;2.30;;
58928;SDS011;44713;53.378;10.022;2022-12-07T06:55:47;9.43;;;2.53;;
58928;SDS011;44713;53.378;10.022;2022-12-07T06:58:12;4.07;;;2.30;;
58928;SDS011;44713;53.378;10.022;2022-12-07T07:00:38;6.85;;;2.47;;
58928;SDS011;44713;53.378;10.022;2022-12-07T07:03:03;6.97;;;1.73;;
58928;SDS011;44713;53.378;10.022;2022-12-07T07:05:28;8.48;;;2.03;;
58928;SDS011;44713;53.378;10.022;2022-12-07T07:07:53;5.80;;;2.30;;
58928;SDS011;44713;53.378;10.022;2022-12-07T07:10:19;5.30;;;2.13;;
58928;SDS011;44713;53.378;10.022;2022-12-07T07:12:44;6.28;;;2.08;;
58928;SDS011;44713;53.378;10.022;2022-12-07T07:15:09;7.10;;;2.28;;
58928;SDS011;44713;53.378;10.022;2022-12-07T07:17:36;5.95;;;2.30;;
58928;SDS011;44713;53.378;10.022;2022-12-07T07:20:02;6.22;;;2.20;;
58928;SDS011;44713;53.378;10.022;2022-12-07T07:22:27;7.45;;;2.05;;
58928;SDS011;44713;53.378;10.022;2022-12-07T07:24:52;9.25;;;2.70;;
58928;SDS011;44713;53.378;10.022;2022-12-07T07:27:17;5.60;;;2.20;;
58928;SDS011;44713;53.378;10.022;2022-12-07T07:29:43;7.28;;;2.60;;
58928;SDS011;44713;53.378;10.022;2022-12-07T07:32:08;5.35;;;2.47;;
58928;SDS011;44713;53.378;10.022;2022-12-07T07:34:33;7.55;;;2.08;;
58928;SDS011;44713;53.378;10.022;2022-12-07T07:36:59;4.57;;;2.40;;
58928;SDS011;44713;53.378;10.022;2022-12-07T07:39:24;6.47;;;2.00;;
58928;SDS011;44713;53.378;10.022;2022-12-07T07:41:50;3.97;;;1.88;;
58928;SDS011;44713;53.378;10.022;2022-12-07T07:44:23;3.85;;;1.90;;
58928;SDS011;44713;53.378;10.022;2022-12-07T07:46:48;5.22;;;2.20;;
58928;SDS011;44713;53.378;10.022;2022-12-07T07:49:13;9.07;;;2.03;;
58928;SDS011;44713;53.378;10.022;2022-12-07T07:51:39;7.45;;;2.72;;
58928;SDS011;44713;53.378;10.022;2022-12-07T07:54:04;6.18;;;1.75;;
58928;SDS011;44713;53.378;10.022;2022-12-07T07:56:30;5.07;;;2.00;;
58928;SDS011;44713;53.378;10.022;2022-12-07T07:58:55;5.40;;;2.20;;
58928;SDS011;44713;53.378;10.022;2022-12-07T08:01:21;6.35;;;2.13;;
58928;SDS011;44713;53.378;10.022;2022-12-07T08:03:46;5.65;;;2.20;;
58928;SDS011;44713;53.378;10.022;2022-12-07T08:06:12;4.85;;;1.95;;
58928;SDS011;44713;53.378;10.022;2022-12-07T08:08:37;5.15;;;1.98;;
58928;SDS011;44713;53.378;10.022;2022-12-07T08:11:05;8.38;;;1.92;;
58928;SDS011;44713;53.378;10.022;2022-12-07T08:13:32;5.90;;;2.42;;
58928;SDS011;44713;53.378;10.022;2022-12-07T08:15:57;5.32;;;1.90;;
58928;SDS011;44713;53.378;10.022;2022-12-07T08:18:23;5.15;;;1.98;;
58928;SDS011;44713;53.378;10.022;2022-12-07T08:20:48;5.50;;;1.90;;
58928;SDS011;44713;53.378;10.022;2022-12-07T08:23:14;6.82;;;2.30;;
58928;SDS011;44713;53.378;10.022;2022-12-07T08:25:39;5.47;;;2.17;;
58928;SDS011;44713;53.378;10.022;2022-12-07T08:28:04;7.93;;;2.25;;
58928;SDS011;44713;53.378;10.022;2022-12-07T08:30:30;7.35;;;2.75;;
58928;SDS011;44713;53.378;10.022;2022-12-07T08:32:56;4.38;;;2.42;;
58928;SDS011;44713;53.378;10.022;2022-12-07T08:35:21;6.68;;;2.30;;
58928;SDS011;44713;53.378;10.022;2022-12-07T08:37:47;4.32;;;2.28;;
58928;SDS011;44713;53.378;10.022;2022-12-07T08:40:13;6.72;;;2.15;;
58928;SDS011;44713;53.378;10.022;2022-12-07T08:42:43;7.15;;;2.63;;
58928;SDS011;44713;53.378;10.022;2022-12-07T08:45:13;4.40;;;2.20;;
58928;SDS011;44713;53.378;10.022;2022-12-07T08:50:37;6.13;;;2.65;;
58928;SDS011;44713;53.378;10.022;2022-12-07T08:53:03;4.95;;;2.50;;
58928;SDS011;44713;53.378;10.022;2022-12-07T08:55:30;6.00;;;2.15;;
58928;SDS011;44713;53.378;10.022;2022-12-07T08:57:58;7.55;;;2.78;;
58928;SDS011;44713;53.378;10.022;2022-12-07T09:00:24;3.15;;;2.08;;
58928;SDS011;44713;53.378;10.022;2022-12-07T09:02:51;5.15;;;2.40;;
58928;SDS011;44713;53.378;10.022;2022-12-07T09:05:16;3.60;;;1.92;;
58928;SDS011;44713;53.378;10.022;2022-12-07T09:07:42;7.43;;;2.28;;
58928;SDS011;44713;53.378;10.022;2022-12-07T09:10:09;7.95;;;2.17;;
58928;SDS011;44713;53.378;10.022;2022-12-07T09:12:35;7.32;;;2.28;;
58928;SDS011;44713;53.378;10.022;2022-12-07T09:15:00;6.78;;;2.22;;
58928;SDS011;44713;53.378;10.022;2022-12-07T09:17:25;8.40;;;2.50;;
58928;SDS011;44713;53.378;10.022;2022-12-07T09:19:51;6.90;;;2.50;;
58928;SDS011;44713;53.378;10.022;2022-12-07T09:22:16;6.30;;;2.75;;
58928;SDS011;44713;53.378;10.022;2022-12-07T09:24:42;5.72;;;1.70;;
58928;SDS011;44713;53.378;10.022;2022-12-07T09:27:08;11.07;;;2.17;;
58928;SDS011;44713;53.378;10.022;2022-12-07T09:29:33;9.88;;;1.70;;
58928;SDS011;44713;53.378;10.022;2022-12-07T09:31:59;3.90;;;1.73;;
58928;SDS011;44713;53.378;10.022;2022-12-07T09:34:24;11.25;;;1.95;;
58928;SDS011;44713;53.378;10.022;2022-12-07T09:36:51;7.05;;;1.70;;
58928;SDS011;44713;53.378;10.022;2022-12-07T09:39:16;6.57;;;1.88;;
58928;SDS011;44713;53.378;10.022;2022-12-07T09:41:42;7.63;;;2.00;;
58928;SDS011;44713;53.378;10.022;2022-12-07T09:44:13;8.20;;;1.90;;
58928;SDS011;44713;53.378;10.022;2022-12-07T09:46:48;7.25;;;1.50;;
58928;SDS011;44713;53.378;10.022;2022-12-07T09:49:16;6.55;;;1.60;;
58928;SDS011;44713;53.378;10.022;2022-12-07T09:51:44;6.72;;;1.70;;
58928;SDS011;44713;53.378;10.022;2022-12-07T09:54:12;5.40;;;1.38;;
58928;SDS011;44713;53.378;10.022;2022-12-07T09:56:39;5.22;;;1.35;;
58928;SDS011;44713;53.378;10.022;2022-12-07T09:59:04;10.30;;;1.38;;
58928;SDS011;44713;53.378;10.022;2022-12-07T10:01:30;3.00;;;0.90;;
58928;SDS011;44713;53.378;10.022;2022-12-07T10:04:05;3.28;;;1.67;;
58928;SDS011;44713;53.378;10.022;2022-12-07T10:06:37;6.75;;;0.88;;
58928;SDS011;44713;53.378;10.022;2022-12-07T10:09:13;3.65;;;0.60;;
58928;SDS011;44713;53.378;10.022;2022-12-07T10:12:03;5.88;;;0.82;;
58928;SDS011;44713;53.378;10.022;2022-12-07T10:14:35;5.35;;;0.60;;
58928;SDS011;44713;53.378;10.022;2022-12-07T10:17:05;2.42;;;0.47;;
58928;SDS011;44713;53.378;10.022;2022-12-07T10:20:18;1.98;;;0.52;;
58928;SDS011;44713;53.378;10.022;2022-12-07T10:23:03;2.90;;;0.50;;
58928;SDS011;44713;53.378;10.022;2022-12-07T10:25:31;2.38;;;0.70;;
58928;SDS011;44713;53.378;10.022;2022-12-07T10:27:59;4.90;;;0.60;;
58928;SDS011;44713;53.378;10.022;2022-12-07T10:30:26;6.43;;;0.60;;
58928;SDS011;44713;53.378;10.022;2022-12-07T10:32:52;5.63;;;0.80;;
58928;SDS011;44713;53.378;10.022;2022-12-07T10:37:54;2.90;;;0.70;;
58928;SDS011;44713;53.378;10.022;2022-12-07T10:40:36;2.92;;;0.50;;
58928;SDS011;44713;53.378;10.022;2022-12-07T10:45:26;4.25;;;0.57;;
58928;SDS011;44713;53.378;10.022;2022-12-07T10:56:31;2.45;;;0.70;;
58928;SDS011;44713;53.378;10.022;2022-12-07T11:04:39;6.50;;;1.13;;
58928;SDS011;44713;53.378;10.022;2022-12-07T11:07:18;4.45;;;0.80;;
58928;SDS011;44713;53.378;10.022;2022-12-07T11:15:13;5.20;;;0.85;;
58928;SDS011;44713;53.378;10.022;2022-12-07T11:20:37;9.70;;;2.20;;
58928;SDS011;44713;53.378;10.022;2022-12-07T11:23:11;5.95;;;1.40;;
58928;SDS011;44713;53.378;10.022;2022-12-07T11:25:49;4.63;;;0.80;;
58928;SDS011;44713;53.378;10.022;2022-12-07T11:30:59;4.40;;;0.75;;
58928;SDS011;44713;53.378;10.022;2022-12-07T11:36:15;4.95;;;0.73;;
58928;SDS011;44713;53.378;10.022;2022-12-07T11:38:55;7.68;;;1.15;;
58928;SDS011;44713;53.378;10.022;2022-12-07T11:41:31;4.03;;;0.88;;
58928;SDS011;44713;53.378;10.022;2022-12-07T11:44:07;7.55;;;1.10;;
58928;SDS011;44713;53.378;10.022;2022-12-07T11:46:54;4.88;;;0.90;;
58928;SDS011;44713;53.378;10.022;2022-12-07T11:52:12;13.47;;;0.90;;
58928;SDS011;44713;53.378;10.022;2022-12-07T11:54:44;3.75;;;0.80;;
58928;SDS011;44713;53.378;10.022;2022-12-07T11:57:13;7.22;;;1.38;;
58928;SDS011;44713;53.378;10.022;2022-12-07T11:59:47;7.10;;;1.20;;
58928;SDS011;44713;53.378;10.022;2022-12-07T12:02:26;5.80;;;1.45;;
58928;SDS011;44713;53.378;10.022;2022-12-07T12:05:20;7.03;;;0.90;;
58928;SDS011;44713;53.378;10.022;2022-12-07T12:07:49;2.58;;;0.95;;
58928;SDS011;44713;53.378;10.022;2022-12-07T12:13:11;6.45;;;1.17;;
58928;SDS011;44713;53.378;10.022;2022-12-07T12:16:08;6.78;;;1.30;;
58928;SDS011;44713;53.378;10.022;2022-12-07T12:21:30;3.38;;;1.38;;
58928;SDS011;44713;53.378;10.022;2022-12-07T12:23:58;7.70;;;1.05;;
58928;SDS011;44713;53.378;10.022;2022-12-07T12:26:35;6.00;;;1.52;;
58928;SDS011;44713;53.378;10.022;2022-12-07T12:29:06;7.03;;;1.17;;
58928;SDS011;44713;53.378;10.022;2022-12-07T12:31:46;8.70;;;1.65;;
58928;SDS011;44713;53.378;10.022;2022-12-07T12:37:13;8.82;;;1.00;;
58928;SDS011;44713;53.378;10.022;2022-12-07T12:42:43;8.40;;;1.23;;
58928;SDS011;44713;53.378;10.022;2022-12-07T12:52:55;80.57;;;32.35;;
58928;SDS011;44713;53.378;10.022;2022-12-07T12:55:27;16.00;;;4.93;;
58928;SDS011;44713;53.378;10.022;2022-12-07T13:00:49;9.52;;;3.58;;
58928;SDS011;44713;53.378;10.022;2022-12-07T13:03:52;11.02;;;3.53;;
58928;SDS011;44713;53.378;10.022;2022-12-07T13:08:50;3.22;;;0.80;;
58928;SDS011;44713;53.378;10.022;2022-12-07T13:11:25;11.40;;;3.85;;
58928;SDS011;44713;53.378;10.022;2022-12-07T13:17:01;10.02;;;2.03;;
58928;SDS011;44713;53.378;10.022;2022-12-07T13:20:39;14.50;;;6.82;;
58928;SDS011;44713;53.378;10.022;2022-12-07T13:24:56;6.13;;;2.70;;
58928;SDS011;44713;53.378;10.022;2022-12-07T13:27:30;5.97;;;1.30;;
58928;SDS011;44713;53.378;10.022;2022-12-07T13:29:56;10.68;;;2.00;;
58928;SDS011;44713;53.378;10.022;2022-12-07T13:32:24;7.38;;;1.33;;
58928;SDS011;44713;53.378;10.022;2022-12-07T13:34:51;6.10;;;1.15;;
58928;SDS011;44713;53.378;10.022;2022-12-07T13:37:26;4.10;;;1.00;;
58928;SDS011;44713;53.378;10.022;2022-12-07T13:39:58;5.03;;;0.80;;
58928;SDS011;44713;53.378;10.022;2022-12-07T13:45:00;5.85;;;1.13;;
58928;SDS011;44713;53.378;10.022;2022-12-07T13:47:52;5.95;;;0.98;;
58928;SDS011;44713;53.378;10.022;2022-12-07T13:50:25;2.75;;;0.50;;
58928;SDS011;44713;53.378;10.022;2022-12-07T13:52:56;14.10;;;1.17;;
58928;SDS011;44713;53.378;10.022;2022-12-07T13:55:23;7.85;;;1.23;;
58928;SDS011;44713;53.378;10.022;2022-12-07T13:57:53;8.82;;;1.00;;
58928;SDS011;44713;53.378;10.022;2022-12-07T14:00:20;10.02;;;1.17;;
58928;SDS011;44713;53.378;10.022;2022-12-07T14:05:26;3.08;;;0.82;;
58928;SDS011;44713;53.378;10.022;2022-12-07T14:12:49;3.85;;;0.90;;
58928;SDS011;44713;53.378;10.022;2022-12-07T14:15:19;3.35;;;0.57;;
58928;SDS011;44713;53.378;10.022;2022-12-07T14:17:51;6.90;;;1.27;;
58928;SDS011;44713;53.378;10.022;2022-12-07T14:20:30;7.35;;;0.90;;
58928;SDS011;44713;53.378;10.022;2022-12-07T14:22:58;8.30;;;0.90;;
58928;SDS011;44713;53.378;10.022;2022-12-07T14:25:25;11.88;;;1.33;;
58928;SDS011;44713;53.378;10.022;2022-12-07T14:27:56;5.68;;;1.00;;
58928;SDS011;44713;53.378;10.022;2022-12-07T14:30:30;37.88;;;14.63;;
58928;SDS011;44713;53.378;10.022;2022-12-07T14:32:58;7.78;;;3.97;;
58928;SDS011;44713;53.378;10.022;2022-12-07T14:35:25;12.30;;;9.40;;
58928;SDS011;44713;53.378;10.022;2022-12-07T14:37:51;6.47;;;2.10;;
58928;SDS011;44713;53.378;10.022;2022-12-07T14:40:21;4.47;;;2.45;;
58928;SDS011;44713;53.378;10.022;2022-12-07T14:42:50;6.00;;;2.45;;
58928;SDS011;44713;53.378;10.022;2022-12-07T14:45:19;7.80;;;1.25;;
58928;SDS011;44713;53.378;10.022;2022-12-07T14:47:46;6.43;;;2.28;;
58928;SDS011;44713;53.378;10.022;2022-12-07T14:50:13;10.50;;;1.20;;
58928;SDS011;44713;53.378;10.022;2022-12-07T14:52:40;4.10;;;1.27;;
58928;SDS011;44713;53.378;10.022;2022-12-07T14:55:17;4.72;;;2.05;;
58928;SDS011;44713;53.378;10.022;2022-12-07T14:57:48;7.00;;;1.90;;
58928;SDS011;44713;53.378;10.022;2022-12-07T15:00:14;7.95;;;1.27;;
58928;SDS011;44713;53.378;10.022;2022-12-07T15:02:40;4.40;;;1.20;;
58928;SDS011;44713;53.378;10.022;2022-12-07T15:05:06;5.05;;;1.08;;
58928;SDS011;44713;53.378;10.022;2022-12-07T15:07:32;5.22;;;1.30;;
58928;SDS011;44713;53.378;10.022;2022-12-07T15:09:57;11.10;;;3.70;;
58928;SDS011;44713;53.378;10.022;2022-12-07T15:12:22;5.03;;;1.10;;
58928;SDS011;44713;53.378;10.022;2022-12-07T15:14:49;9.85;;;2.72;;
58928;SDS011;44713;53.378;10.022;2022-12-07T15:17:15;9.65;;;1.30;;
58928;SDS011;44713;53.378;10.022;2022-12-07T15:19:41;9.88;;;2.40;;
58928;SDS011;44713;53.378;10.022;2022-12-07T15:22:07;4.13;;;1.42;;
58928;SDS011;44713;53.378;10.022;2022-12-07T15:24:33;8.05;;;1.40;;
58928;SDS011;44713;53.378;10.022;2022-12-07T15:26:59;4.40;;;1.30;;
58928;SDS011;44713;53.378;10.022;2022-12-07T15:29:24;7.60;;;2.33;;
58928;SDS011;44713;53.378;10.022;2022-12-07T15:31:50;8.88;;;2.40;;
58928;SDS011;44713;53.378;10.022;2022-12-07T15:34:16;8.23;;;2.33;;
58928;SDS011;44713;53.378;10.022;2022-12-07T15:36:42;8.32;;;2.15;;
58928;SDS011;44713;53.378;10.022;2022-12-07T15:39:07;6.22;;;1.83;;
58928;SDS011;44713;53.378;10.022;2022-12-07T15:41:34;8.93;;;2.40;;
58928;SDS011;44713;53.378;10.022;2022-12-07T15:44:00;28.60;;;11.20;;
58928;SDS011;44713;53.378;10.022;2022-12-07T15:46:44;34.10;;;17.10;;
58928;SDS011;44713;53.378;10.022;2022-12-07T15:49:11;18.95;;;9.70;;
58928;SDS011;44713;53.378;10.022;2022-12-07T15:51:38;16.45;;;5.55;;
58928;SDS011;44713;53.378;10.022;2022-12-07T15:54:04;7.70;;;4.15;;
58928;SDS011;44713;53.378;10.022;2022-12-07T15:56:29;7.93;;;3.17;;
58928;SDS011;44713;53.378;10.022;2022-12-07T15:58:55;6.93;;;2.15;;
58928;SDS011;44713;53.378;10.022;2022-12-07T16:01:21;5.45;;;2.30;;
58928;SDS011;44713;53.378;10.022;2022-12-07T16:03:46;6.75;;;2.60;;
58928;SDS011;44713;53.378;10.022;2022-12-07T16:06:14;5.22;;;2.70;;
58928;SDS011;44713;53.378;10.022;2022-12-07T16:08:42;7.20;;;2.35;;
58928;SDS011;44713;53.378;10.022;2022-12-07T16:11:12;7.32;;;2.63;;
58928;SDS011;44713;53.378;10.022;2022-12-07T16:13:38;6.10;;;2.55;;
58928;SDS011;44713;53.378;10.022;2022-12-07T16:16:05;5.28;;;1.73;;
58928;SDS011;44713;53.378;10.022;2022-12-07T16:18:32;4.18;;;1.80;;
58928;SDS011;44713;53.378;10.022;2022-12-07T16:20:57;4.97;;;1.60;;